createdAt,value
2023-01-19T00:00:52.236Z,45.63
2023-01-19T00:01:54.058Z,45.86
2023-01-19T00:02:55.772Z,46.09
2023-01-19T00:03:57.684Z,46.38
2023-01-19T00:04:59.514Z,47.24
2023-01-19T00:06:06.059Z,47.43
2023-01-19T00:07:07.876Z,46.14
2023-01-19T00:08:10.055Z,46.20
2023-01-19T00:09:11.777Z,46.19
2023-01-19T00:10:13.494Z,46.08
2023-01-19T00:11:15.351Z,46.52
2023-01-19T00:12:17.159Z,46.46
2023-01-19T00:13:18.870Z,47.00
2023-01-19T00:14:20.702Z,46.99
2023-01-19T00:15:22.384Z,46.77
2023-01-19T00:16:24.098Z,47.02
2023-01-19T00:17:25.940Z,46.81
2023-01-19T00:18:27.721Z,46.67
2023-01-19T00:19:29.730Z,46.72
2023-01-19T00:20:31.661Z,46.76
2023-01-19T00:21:33.353Z,46.04
2023-01-19T00:22:35.053Z,46.32
2023-01-19T00:23:36.770Z,45.82
2023-01-19T00:24:38.512Z,46.02
2023-01-19T00:25:40.496Z,45.89
2023-01-19T00:26:42.340Z,46.65
2023-01-19T00:27:44.090Z,47.02
2023-01-19T00:28:46.084Z,47.19
2023-01-19T00:29:47.811Z,47.55
2023-01-19T00:30:50.390Z,47.64
2023-01-19T00:31:52.149Z,48.17
2023-01-19T00:32:53.864Z,48.26
2023-01-19T00:33:55.617Z,48.18
2023-01-19T00:34:57.412Z,48.13
2023-01-19T00:35:59.119Z,47.82
2023-01-19T00:37:00.864Z,47.85
2023-01-19T00:38:03.345Z,48.03
2023-01-19T00:39:05.011Z,47.62
2023-01-19T00:40:07.764Z,47.73
2023-01-19T00:41:09.469Z,48.07
2023-01-19T00:42:12.766Z,48.24
2023-01-19T00:43:14.586Z,48.30
2023-01-19T00:44:16.416Z,48.24
2023-01-19T00:45:20.783Z,47.71
2023-01-19T00:46:22.488Z,47.05
2023-01-19T00:47:24.332Z,46.50
2023-01-19T00:48:26.058Z,45.69
2023-01-19T00:49:27.725Z,46.06
2023-01-19T00:50:31.386Z,46.35
2023-01-19T00:51:33.119Z,46.38
2023-01-19T00:52:34.819Z,46.54
2023-01-19T00:53:36.545Z,47.09
2023-01-19T00:54:38.202Z,47.03
2023-01-19T00:55:40.001Z,47.52
2023-01-19T00:56:41.807Z,48.04
2023-01-19T00:57:43.526Z,47.27
2023-01-19T00:58:45.307Z,46.49
2023-01-19T00:59:47.060Z,46.43
2023-01-19T01:00:49.049Z,46.73
2023-01-19T01:01:51.167Z,47.10
2023-01-19T01:02:53.835Z,47.12
2023-01-19T01:03:55.646Z,47.25
2023-01-19T01:04:57.520Z,47.13
2023-01-19T01:05:59.515Z,45.76
2023-01-19T01:07:01.275Z,45.61
2023-01-19T01:08:03.103Z,45.71
2023-01-19T01:09:05.115Z,46.11
2023-01-19T01:10:15.823Z,45.80
2023-01-19T01:11:17.597Z,45.64
2023-01-19T01:12:19.620Z,45.88
2023-01-19T01:13:22.561Z,45.80
2023-01-19T01:14:26.556Z,46.46
2023-01-19T01:15:28.746Z,44.69
2023-01-19T01:16:30.622Z,45.47
2023-01-19T01:17:32.858Z,45.38
2023-01-19T01:18:34.596Z,45.11
2023-01-19T01:19:36.386Z,45.47
2023-01-19T01:20:38.120Z,45.50
2023-01-19T01:21:39.965Z,45.69
2023-01-19T01:22:41.986Z,45.69
2023-01-19T01:23:43.724Z,46.04
2023-01-19T01:24:45.478Z,45.81
2023-01-19T01:25:47.164Z,46.11
2023-01-19T01:26:48.952Z,45.68
2023-01-19T01:27:50.906Z,44.93
2023-01-19T01:28:52.605Z,45.38
2023-01-19T01:29:54.351Z,45.66
2023-01-19T01:30:57.277Z,44.99
2023-01-19T01:31:59.093Z,45.01
2023-01-19T01:33:01.491Z,45.70
2023-01-19T01:34:03.647Z,45.43
2023-01-19T01:35:06.123Z,45.63
2023-01-19T01:36:08.890Z,46.08
2023-01-19T01:37:10.542Z,46.67
2023-01-19T01:38:12.274Z,47.00
2023-01-19T01:39:13.971Z,47.00
2023-01-19T01:40:18.374Z,46.27
2023-01-19T01:41:21.905Z,46.41
2023-01-19T01:42:29.877Z,46.53
2023-01-19T01:43:53.657Z,46.95
2023-01-19T01:44:58.902Z,46.57
2023-01-19T01:46:00.786Z,46.69
2023-01-19T01:47:03.664Z,46.80
2023-01-19T01:48:23.060Z,47.19
2023-01-19T01:49:24.937Z,46.41
2023-01-19T01:50:31.649Z,46.21
2023-01-19T01:51:42.289Z,46.33
2023-01-19T01:53:07.290Z,46.54
2023-01-19T01:54:31.406Z,46.55
2023-01-19T01:55:37.079Z,45.96
2023-01-19T01:56:47.988Z,46.09
2023-01-19T01:57:54.493Z,46.16
2023-01-19T01:58:56.503Z,46.11
2023-01-19T01:59:58.974Z,46.26
2023-01-19T02:01:00.823Z,46.07
2023-01-19T02:02:07.832Z,46.28
2023-01-19T02:03:09.769Z,46.59
2023-01-19T02:04:11.472Z,46.31
2023-01-19T02:05:27.508Z,45.73
2023-01-19T02:06:29.703Z,45.98
2023-01-19T02:07:34.530Z,46.11
2023-01-19T02:08:55.754Z,46.28
2023-01-19T02:09:57.469Z,47.03
2023-01-19T02:11:00.868Z,47.17
2023-01-19T02:12:02.594Z,46.62
2023-01-19T02:13:06.075Z,45.90
2023-01-19T02:14:08.030Z,45.76
2023-01-19T02:15:18.401Z,45.27
2023-01-19T02:16:20.301Z,45.75
2023-01-19T02:17:22.277Z,45.76
2023-01-19T02:18:27.381Z,45.75
2023-01-19T02:19:43.458Z,44.73
2023-01-19T02:20:53.658Z,44.92
2023-01-19T02:21:59.807Z,44.35
2023-01-19T02:23:05.961Z,43.99
2023-01-19T02:24:08.404Z,43.90
2023-01-19T02:25:10.170Z,43.96
2023-01-19T02:26:22.177Z,44.01
2023-01-19T02:27:23.895Z,43.70
2023-01-19T02:28:27.722Z,43.93
2023-01-19T02:29:29.583Z,44.22
2023-01-19T02:30:31.697Z,44.77
2023-01-19T02:31:36.458Z,44.82
2023-01-19T02:32:38.336Z,44.70
2023-01-19T02:33:40.117Z,43.82
2023-01-19T02:34:41.814Z,43.76
2023-01-19T02:35:44.995Z,43.16
2023-01-19T02:36:49.570Z,43.19
2023-01-19T02:37:52.838Z,42.97
2023-01-19T02:38:57.484Z,43.17
2023-01-19T02:40:02.881Z,43.31
2023-01-19T02:41:07.636Z,43.86
2023-01-19T02:42:38.187Z,43.04
2023-01-19T02:43:42.268Z,43.42
2023-01-19T02:44:48.209Z,44.10
2023-01-19T02:45:49.975Z,43.66
2023-01-19T02:46:54.356Z,44.07
2023-01-19T02:47:56.135Z,43.92
2023-01-19T02:49:01.254Z,43.83
2023-01-19T02:50:34.062Z,44.59
2023-01-19T02:51:35.963Z,44.36
2023-01-19T02:52:37.686Z,44.04
2023-01-19T02:54:05.047Z,43.60
2023-01-19T02:55:09.687Z,43.40
2023-01-19T02:56:32.297Z,43.64
2023-01-19T02:57:56.637Z,43.91
2023-01-19T02:59:30.754Z,43.64
2023-01-19T03:00:41.918Z,43.52
2023-01-19T03:02:07.896Z,43.36
2023-01-19T03:03:56.239Z,43.35
2023-01-19T03:05:18.222Z,43.47
2023-01-19T03:06:42.537Z,43.84
2023-01-19T03:08:39.674Z,42.99
2023-01-19T03:09:59.119Z,42.43
2023-01-19T03:11:08.181Z,42.63
2023-01-19T03:12:23.632Z,42.92
2023-01-19T03:13:34.241Z,42.92
2023-01-19T03:14:42.603Z,42.67
2023-01-19T03:15:52.015Z,42.11
2023-01-19T03:16:59.493Z,42.23
2023-01-19T03:18:03.894Z,42.17
2023-01-19T03:19:11.148Z,42.73
2023-01-19T03:20:17.307Z,42.29
2023-01-19T03:21:22.474Z,42.60
2023-01-19T03:22:29.711Z,43.24
2023-01-19T03:23:34.791Z,43.19
2023-01-19T03:24:42.854Z,42.81
2023-01-19T03:25:48.296Z,42.35
2023-01-19T03:26:55.490Z,42.62
2023-01-19T03:27:58.001Z,42.75
2023-01-19T03:29:02.359Z,42.79
2023-01-19T03:30:13.157Z,42.52
2023-01-19T03:31:19.286Z,42.91
2023-01-19T03:32:28.013Z,43.04
2023-01-19T03:33:34.198Z,42.96
2023-01-19T03:34:39.184Z,43.09
2023-01-19T03:35:49.425Z,43.13
2023-01-19T03:36:55.051Z,42.99
2023-01-19T03:38:00.531Z,43.03
2023-01-19T03:39:06.050Z,43.13
2023-01-19T03:40:09.040Z,43.15
2023-01-19T03:41:16.502Z,42.89
2023-01-19T03:42:19.292Z,42.45
2023-01-19T03:43:22.664Z,42.58
2023-01-19T03:44:28.893Z,42.50
2023-01-19T03:45:33.546Z,42.67
2023-01-19T03:46:35.317Z,42.48
2023-01-19T03:47:37.124Z,42.42
2023-01-19T03:48:39.197Z,42.83
2023-01-19T03:49:43.720Z,43.30
2023-01-19T03:50:45.598Z,42.91
2023-01-19T03:51:47.699Z,42.61
2023-01-19T03:53:01.928Z,42.57
2023-01-19T03:54:05.211Z,42.95
2023-01-19T03:55:07.315Z,43.14
2023-01-19T03:56:20.929Z,43.07
2023-01-19T03:57:22.762Z,42.89
2023-01-19T03:58:24.497Z,42.77
2023-01-19T03:59:26.225Z,42.53
2023-01-19T04:00:28.055Z,42.53
2023-01-19T04:01:29.753Z,43.07
2023-01-19T04:02:31.652Z,43.16
2023-01-19T04:03:33.580Z,43.21
2023-01-19T04:04:35.292Z,43.59
2023-01-19T04:05:37.193Z,43.00
2023-01-19T04:06:39.309Z,42.92
2023-01-19T04:07:41.027Z,43.00
2023-01-19T04:08:42.740Z,42.71
2023-01-19T04:09:44.411Z,42.04
2023-01-19T04:10:46.194Z,42.49
2023-01-19T04:11:47.975Z,42.27
2023-01-19T04:12:49.692Z,42.06
2023-01-19T04:13:51.482Z,41.41
2023-01-19T04:14:53.262Z,41.68
2023-01-19T04:15:55.002Z,41.83
2023-01-19T04:16:56.781Z,41.54
2023-01-19T04:18:01.875Z,41.70
2023-01-19T04:19:03.635Z,41.58
2023-01-19T04:20:05.991Z,41.81
2023-01-19T04:21:08.212Z,41.99
2023-01-19T04:22:09.956Z,41.42
2023-01-19T04:23:11.656Z,41.47
2023-01-19T04:24:13.424Z,41.66
2023-01-19T04:25:15.527Z,41.69
2023-01-19T04:26:17.275Z,41.95
2023-01-19T04:27:19.374Z,41.81
2023-01-19T04:28:21.440Z,41.37
2023-01-19T04:29:23.178Z,41.31
2023-01-19T04:30:25.893Z,41.52
2023-01-19T04:31:27.695Z,40.49
2023-01-19T04:32:30.302Z,40.53
2023-01-19T04:33:32.418Z,40.90
2023-01-19T04:34:34.380Z,41.03
2023-01-19T04:35:36.024Z,40.95
2023-01-19T04:36:37.752Z,41.32
2023-01-19T04:37:39.463Z,41.00
2023-01-19T04:38:41.211Z,41.34
2023-01-19T04:39:43.104Z,40.65
2023-01-19T04:40:45.168Z,40.64
2023-01-19T04:41:46.842Z,40.69
2023-01-19T04:42:48.574Z,40.83
2023-01-19T04:43:50.294Z,40.90
2023-01-19T04:44:51.999Z,40.73
2023-01-19T04:45:53.731Z,40.94
2023-01-19T04:46:55.391Z,40.15
2023-01-19T04:47:57.358Z,40.61
2023-01-19T04:48:59.146Z,40.76
2023-01-19T04:50:01.042Z,40.25
2023-01-19T04:51:02.728Z,39.97
2023-01-19T04:52:05.764Z,40.13
2023-01-19T04:53:08.409Z,40.48
2023-01-19T04:54:10.388Z,40.43
2023-01-19T04:55:12.109Z,40.62
2023-01-19T04:56:13.832Z,40.35
2023-01-19T04:57:15.668Z,40.14
2023-01-19T04:58:17.428Z,40.25
2023-01-19T04:59:19.169Z,39.76
2023-01-19T05:00:21.330Z,39.96
2023-01-19T05:01:23.138Z,40.43
2023-01-19T05:02:25.734Z,40.47
2023-01-19T05:03:27.555Z,39.67
2023-01-19T05:04:29.394Z,39.75
2023-01-19T05:05:31.230Z,39.76
2023-01-19T05:06:33.708Z,39.72
2023-01-19T05:07:35.493Z,39.72
2023-01-19T05:08:37.210Z,39.85
2023-01-19T05:09:38.887Z,39.60
2023-01-19T05:10:40.650Z,39.72
2023-01-19T05:11:42.329Z,39.88
2023-01-19T05:12:44.124Z,40.33
2023-01-19T05:13:45.856Z,40.58
2023-01-19T05:14:47.600Z,40.58
2023-01-19T05:15:49.462Z,40.82
2023-01-19T05:16:51.263Z,40.48
2023-01-19T05:17:52.982Z,40.25
2023-01-19T05:18:54.718Z,39.67
2023-01-19T05:19:56.534Z,39.75
2023-01-19T05:20:58.278Z,40.06
2023-01-19T05:22:00.035Z,39.76
2023-01-19T05:23:02.100Z,40.00
2023-01-19T05:24:04.205Z,40.20
2023-01-19T05:25:09.374Z,40.33
2023-01-19T05:26:11.105Z,40.84
2023-01-19T05:27:12.796Z,40.90
2023-01-19T05:28:14.483Z,40.63
2023-01-19T05:29:16.278Z,40.82
2023-01-19T05:30:18.586Z,40.83
2023-01-19T05:31:20.616Z,41.37
2023-01-19T05:32:22.380Z,41.56
2023-01-19T05:33:24.292Z,41.25
2023-01-19T05:34:26.035Z,41.03
2023-01-19T05:35:35.239Z,41.19
2023-01-19T05:36:38.287Z,41.20
2023-01-19T05:37:40.037Z,41.47
2023-01-19T05:38:41.914Z,41.15
2023-01-19T05:39:43.641Z,40.85
2023-01-19T05:40:45.617Z,40.09
2023-01-19T05:41:47.402Z,40.62
2023-01-19T05:42:49.082Z,40.40
2023-01-19T05:43:50.761Z,40.96
2023-01-19T05:44:52.440Z,40.31
2023-01-19T05:45:54.109Z,39.83
2023-01-19T05:46:56.223Z,39.93
2023-01-19T05:47:57.954Z,39.90
2023-01-19T05:48:59.601Z,40.45
2023-01-19T05:50:01.407Z,40.44
2023-01-19T05:51:03.075Z,40.64
2023-01-19T05:52:04.886Z,40.82
2023-01-19T05:53:06.587Z,40.03
2023-01-19T05:54:08.576Z,39.78
2023-01-19T05:55:10.372Z,40.28
2023-01-19T05:56:12.084Z,40.75
2023-01-19T05:57:14.666Z,40.53
2023-01-19T05:58:16.551Z,40.61
2023-01-19T05:59:18.578Z,41.32
2023-01-19T06:00:20.590Z,40.07
2023-01-19T06:01:22.479Z,39.11
2023-01-19T06:02:24.346Z,39.54
2023-01-19T06:03:26.139Z,39.61
2023-01-19T06:04:27.829Z,39.65
2023-01-19T06:05:29.785Z,39.72
2023-01-19T06:06:31.746Z,39.87
2023-01-19T06:07:33.497Z,38.68
2023-01-19T06:08:35.376Z,39.08
2023-01-19T06:09:37.093Z,38.98
2023-01-19T06:10:38.820Z,39.03
2023-01-19T06:11:40.568Z,39.16
2023-01-19T06:12:42.578Z,38.98
2023-01-19T06:13:44.314Z,39.16
2023-01-19T06:14:46.054Z,39.28
2023-01-19T06:15:48.052Z,39.34
2023-01-19T06:16:49.784Z,39.62
2023-01-19T06:17:51.649Z,39.27
2023-01-19T06:18:53.364Z,39.58
2023-01-19T06:19:55.049Z,39.61
2023-01-19T06:20:56.900Z,39.71
2023-01-19T06:21:58.608Z,39.94
2023-01-19T06:23:00.679Z,40.10
2023-01-19T06:24:02.585Z,39.93
2023-01-19T06:25:04.574Z,39.28
2023-01-19T06:26:06.525Z,39.26
2023-01-19T06:27:08.690Z,39.21
2023-01-19T06:28:10.333Z,39.43
2023-01-19T06:29:12.190Z,39.55
2023-01-19T06:30:14.312Z,39.19
2023-01-19T06:31:16.156Z,39.10
2023-01-19T06:32:17.914Z,39.27
2023-01-19T06:33:20.617Z,39.32
2023-01-19T06:34:22.445Z,39.23
2023-01-19T06:35:24.398Z,39.49
2023-01-19T06:36:26.209Z,39.31
2023-01-19T06:37:27.921Z,39.66
2023-01-19T06:38:29.653Z,39.24
2023-01-19T06:39:31.336Z,39.23
2023-01-19T06:40:33.047Z,39.75
2023-01-19T06:41:35.620Z,39.80
2023-01-19T06:42:37.547Z,40.10
2023-01-19T06:43:39.273Z,40.33
2023-01-19T06:44:41.077Z,39.50
2023-01-19T06:45:45.087Z,39.89
2023-01-19T06:46:46.884Z,40.06
2023-01-19T06:47:48.911Z,40.52
2023-01-19T06:48:50.718Z,40.23
2023-01-19T06:49:52.588Z,40.17
2023-01-19T06:50:54.340Z,39.58
2023-01-19T06:51:56.173Z,39.87
2023-01-19T06:52:58.521Z,39.93
2023-01-19T06:54:00.591Z,39.99
2023-01-19T06:55:02.497Z,40.30
2023-01-19T06:56:04.792Z,39.83
2023-01-19T06:57:06.861Z,39.98
2023-01-19T06:58:08.846Z,39.61
2023-01-19T06:59:10.601Z,39.77
2023-01-19T07:00:13.538Z,40.27
2023-01-19T07:01:15.550Z,40.25
2023-01-19T07:02:27.292Z,40.37
2023-01-19T07:03:31.038Z,39.85
2023-01-19T07:04:32.927Z,40.30
2023-01-19T07:05:36.050Z,39.72
2023-01-19T07:06:38.013Z,39.62
2023-01-19T07:07:40.019Z,39.69
2023-01-19T07:08:41.778Z,39.33
2023-01-19T07:09:43.542Z,39.11
2023-01-19T07:11:24.721Z,39.57
2023-01-19T07:12:07.011Z,39.58
2023-01-19T07:13:08.796Z,39.71
2023-01-19T07:14:10.540Z,39.68
2023-01-19T07:15:12.340Z,39.82
2023-01-19T07:41:10.743Z,36.66
2023-01-19T07:42:12.577Z,36.74
2023-01-19T07:43:15.233Z,36.49
2023-01-19T07:44:17.265Z,36.69
2023-01-19T07:45:20.666Z,36.70
2023-01-19T07:46:22.419Z,36.76
2023-01-19T07:47:24.267Z,36.65
2023-01-19T07:48:26.638Z,36.59
2023-01-19T07:49:28.409Z,35.77
2023-01-19T07:50:30.130Z,36.01
2023-01-19T07:51:31.994Z,36.24
2023-01-19T07:52:33.751Z,36.26
2023-01-19T07:53:35.455Z,36.50
2023-01-19T07:54:38.331Z,36.13
2023-01-19T07:55:40.165Z,36.42
2023-01-19T07:56:41.900Z,35.83
2023-01-19T07:57:43.577Z,35.62
2023-01-19T07:58:45.278Z,35.36
2023-01-19T07:59:47.017Z,34.82
2023-01-19T08:00:48.733Z,35.04
2023-01-19T08:01:50.830Z,34.88
2023-01-19T08:02:53.011Z,34.60
2023-01-19T08:03:54.712Z,34.90
2023-01-19T08:04:56.526Z,35.58
2023-01-19T08:05:58.256Z,35.54
2023-01-19T08:06:59.970Z,35.08
2023-01-19T08:08:02.258Z,35.18
2023-01-19T08:09:04.246Z,34.47
2023-01-19T08:10:06.699Z,34.88
2023-01-19T08:11:08.387Z,35.08
2023-01-19T08:12:10.258Z,35.08
2023-01-19T08:13:12.052Z,35.52
2023-01-19T08:14:13.825Z,35.33
2023-01-19T08:15:15.653Z,34.96
2023-01-19T08:16:17.407Z,34.89
2023-01-19T08:17:19.316Z,34.83
2023-01-19T08:18:21.945Z,34.17
2023-01-19T08:19:23.839Z,34.09
2023-01-19T08:20:26.380Z,34.57
2023-01-19T08:21:28.377Z,34.49
2023-01-19T08:22:30.085Z,34.32
2023-01-19T08:23:31.770Z,34.14
2023-01-19T08:24:33.445Z,34.36
2023-01-19T08:25:37.990Z,33.43
2023-01-19T08:26:39.739Z,33.51
2023-01-19T08:27:41.464Z,33.47
2023-01-19T08:28:43.214Z,33.48
2023-01-19T08:29:44.985Z,32.30
2023-01-19T08:30:47.309Z,32.91
2023-01-19T08:31:49.142Z,33.08
2023-01-19T08:32:51.042Z,33.08
2023-01-19T08:33:53.739Z,33.51
2023-01-19T08:34:55.414Z,32.97
2023-01-19T08:35:57.167Z,32.94
2023-01-19T08:36:59.546Z,32.19
2023-01-19T08:38:01.757Z,32.96
2023-01-19T08:39:03.709Z,33.64
2023-01-19T08:40:06.382Z,32.85
2023-01-19T08:41:08.176Z,32.49
2023-01-19T08:42:09.930Z,32.87
2023-01-19T08:43:14.482Z,33.00
2023-01-19T08:44:16.398Z,32.96
2023-01-19T08:45:18.252Z,33.45
2023-01-19T08:46:20.060Z,33.41
2023-01-19T08:47:21.895Z,33.68
2023-01-19T08:48:24.101Z,32.93
2023-01-19T08:49:25.877Z,33.24
2023-01-19T08:50:30.274Z,32.78
2023-01-19T08:51:32.111Z,32.16
2023-01-19T08:52:33.901Z,32.89
2023-01-19T08:53:35.599Z,33.13
2023-01-19T08:54:37.308Z,33.16
2023-01-19T08:55:39.073Z,32.99
2023-01-19T08:56:41.187Z,33.15
2023-01-19T08:57:42.870Z,32.04
2023-01-19T08:58:49.394Z,32.61
2023-01-19T08:59:58.051Z,32.28
2023-01-19T09:01:01.998Z,32.81
2023-01-19T09:02:04.968Z,32.79
2023-01-19T09:03:09.330Z,32.45
2023-01-19T09:04:11.132Z,32.18
2023-01-19T09:05:12.998Z,32.05
2023-01-19T09:06:16.426Z,32.04
2023-01-19T09:07:19.187Z,32.54
2023-01-19T09:08:20.838Z,32.12
2023-01-19T09:09:22.546Z,32.38
2023-01-19T09:10:24.365Z,32.63
2023-01-19T09:11:26.054Z,31.68
2023-01-19T09:12:27.772Z,31.84
2023-01-19T09:13:29.598Z,31.88
2023-01-19T09:14:31.379Z,32.67
2023-01-19T09:15:33.342Z,31.97
2023-01-19T09:16:35.033Z,32.27
2023-01-19T09:17:36.786Z,32.28
2023-01-19T09:18:38.870Z,32.11
2023-01-19T09:19:41.347Z,32.11
2023-01-19T09:20:45.068Z,32.00
2023-01-19T09:21:46.727Z,31.19
2023-01-19T09:22:48.466Z,31.53
2023-01-19T09:23:50.203Z,31.63
2023-01-19T09:24:51.908Z,32.50
2023-01-19T09:25:59.497Z,32.06
2023-01-19T09:27:01.651Z,32.36
2023-01-19T09:28:04.209Z,32.63
2023-01-19T09:29:06.701Z,32.00
2023-01-19T09:30:11.087Z,31.38
2023-01-19T09:31:14.950Z,31.46
2023-01-19T09:32:18.421Z,32.46
2023-01-19T09:33:23.295Z,32.36
2023-01-19T09:34:26.453Z,31.69
2023-01-19T09:35:29.703Z,31.88
2023-01-19T09:36:31.700Z,32.23
2023-01-19T09:37:33.695Z,31.86
2023-01-19T09:38:35.694Z,31.31
2023-01-19T09:39:37.381Z,30.03
2023-01-19T09:40:45.294Z,31.08
2023-01-19T09:41:51.312Z,30.94
2023-01-19T09:43:19.067Z,31.48
2023-01-19T09:44:29.651Z,31.94
2023-01-19T09:45:31.503Z,31.68
2023-01-19T09:46:43.179Z,32.12
2023-01-19T09:47:47.032Z,31.84
2023-01-19T09:48:53.647Z,31.38
2023-01-19T09:50:19.853Z,30.79
2023-01-19T09:51:27.441Z,31.34
2023-01-19T09:52:32.882Z,31.03
2023-01-19T09:53:46.603Z,30.57
2023-01-19T09:54:56.334Z,30.89
2023-01-19T09:55:58.128Z,31.01
2023-01-19T09:57:00.015Z,30.86
2023-01-19T09:58:04.006Z,31.29
2023-01-19T09:59:17.645Z,31.35
2023-01-19T10:00:19.660Z,31.26
2023-01-19T10:01:55.842Z,30.81
2023-01-19T10:03:10.253Z,30.11
2023-01-19T10:04:34.396Z,29.54
2023-01-19T10:05:44.786Z,29.60
2023-01-19T10:06:48.608Z,30.75
2023-01-19T10:08:17.755Z,29.86
2023-01-19T10:09:31.509Z,30.93
2023-01-19T10:10:35.360Z,31.33
2023-01-19T10:11:52.725Z,30.06
2023-01-19T10:13:25.607Z,30.69
2023-01-19T10:14:36.712Z,30.80
2023-01-19T10:15:47.869Z,30.04
2023-01-19T10:17:18.935Z,30.70
2023-01-19T10:18:29.536Z,30.73
2023-01-19T10:19:35.829Z,30.96
2023-01-19T10:20:51.943Z,30.61
2023-01-19T10:21:58.103Z,30.71
2023-01-19T10:23:01.555Z,30.47
2023-01-19T10:24:30.423Z,30.25
2023-01-19T10:25:33.424Z,30.22
2023-01-19T10:26:43.881Z,30.20
2023-01-19T10:27:46.643Z,30.38
2023-01-19T10:28:50.730Z,30.88
2023-01-19T10:29:52.591Z,30.49
2023-01-19T10:30:55.463Z,30.05
2023-01-19T10:32:08.348Z,29.66
2023-01-19T10:33:13.562Z,29.82
2023-01-19T10:34:17.378Z,30.03
2023-01-19T10:35:23.646Z,30.10
2023-01-19T10:36:35.854Z,29.81
2023-01-19T10:37:39.598Z,29.45
2023-01-19T10:38:41.520Z,29.66
2023-01-19T10:39:46.176Z,29.29
2023-01-19T10:41:17.393Z,29.35
2023-01-19T10:42:19.579Z,29.14
2023-01-19T10:43:58.506Z,29.42
2023-01-19T10:45:00.331Z,29.45
2023-01-19T10:46:18.254Z,29.51
2023-01-19T10:47:24.682Z,29.93
2023-01-19T10:48:26.798Z,29.80
2023-01-19T10:49:41.161Z,30.01
2023-01-19T10:50:43.136Z,30.44
2023-01-19T10:51:47.872Z,30.13
2023-01-19T10:52:52.247Z,29.95
2023-01-19T10:54:02.337Z,29.64
2023-01-19T10:55:07.093Z,29.57
2023-01-19T10:56:12.905Z,29.06
2023-01-19T10:57:34.331Z,29.07
2023-01-19T10:58:36.015Z,30.14
2023-01-19T10:59:50.907Z,29.96
2023-01-19T11:00:53.053Z,30.18
2023-01-19T11:02:23.824Z,30.75
2023-01-19T11:03:30.453Z,31.31
2023-01-19T11:04:32.345Z,31.51
2023-01-19T11:05:35.726Z,30.91
2023-01-19T11:06:37.415Z,30.76
2023-01-19T11:07:41.963Z,31.13
2023-01-19T11:08:47.516Z,31.02
2023-01-19T11:09:50.352Z,31.02
2023-01-19T11:11:03.452Z,30.99
2023-01-19T11:12:05.565Z,31.30
2023-01-19T11:13:13.972Z,31.51
2023-01-19T11:14:19.783Z,32.14
2023-01-19T11:15:23.209Z,32.03
2023-01-19T11:16:35.392Z,31.94
2023-01-19T11:17:37.230Z,32.22
2023-01-19T11:18:40.913Z,32.18
2023-01-19T11:19:42.729Z,31.83
2023-01-19T11:20:52.795Z,31.62
2023-01-19T11:22:09.740Z,31.58
2023-01-19T11:23:33.876Z,32.10
2023-01-19T11:24:38.415Z,32.50
2023-01-19T11:25:41.173Z,32.15
2023-01-19T11:26:49.497Z,32.14
2023-01-19T11:27:51.998Z,32.41
2023-01-19T11:28:56.589Z,32.11
2023-01-19T11:30:22.363Z,31.92
2023-01-19T11:31:29.884Z,32.35
2023-01-19T11:32:31.914Z,32.36
2023-01-19T11:33:37.265Z,31.72
2023-01-19T11:34:39.125Z,31.60
2023-01-19T11:35:41.595Z,31.55
2023-01-19T11:36:56.231Z,31.08
2023-01-19T11:38:12.064Z,30.88
2023-01-19T11:39:25.234Z,30.86
2023-01-19T11:40:26.890Z,30.73
2023-01-19T11:41:34.360Z,30.92
2023-01-19T11:42:36.225Z,30.79
2023-01-19T11:43:48.739Z,30.96
2023-01-19T11:45:14.528Z,30.68
2023-01-19T11:46:17.507Z,30.12
2023-01-19T11:47:26.927Z,30.53
2023-01-19T11:48:39.614Z,30.17
2023-01-19T11:49:53.673Z,29.59
2023-01-19T11:50:57.342Z,30.02
2023-01-19T11:52:04.937Z,30.53
2023-01-19T11:53:11.542Z,29.85
2023-01-19T11:54:23.040Z,30.00
2023-01-19T11:55:43.768Z,29.74
2023-01-19T11:56:48.420Z,29.80
2023-01-19T11:57:58.417Z,28.54
2023-01-19T11:59:02.426Z,29.16
2023-01-19T12:00:24.681Z,28.59
2023-01-19T12:01:33.713Z,29.07
2023-01-19T12:02:45.781Z,29.38
2023-01-19T12:03:54.623Z,29.17
2023-01-19T12:05:04.216Z,29.03
2023-01-19T12:06:27.237Z,29.22
2023-01-19T12:07:33.627Z,29.19
2023-01-19T12:08:39.991Z,28.65
2023-01-19T12:09:46.258Z,28.97
2023-01-19T12:10:49.294Z,29.43
2023-01-19T12:11:57.399Z,29.23
2023-01-19T12:13:00.398Z,29.88
2023-01-19T12:14:02.774Z,29.16
2023-01-19T12:15:11.036Z,29.33
2023-01-19T12:16:28.619Z,29.80
2023-01-19T12:17:38.065Z,29.86
2023-01-19T12:18:47.149Z,28.66
2023-01-19T12:20:01.975Z,28.91
2023-01-19T12:21:04.341Z,28.84
2023-01-19T12:22:06.685Z,29.35
2023-01-19T12:23:10.970Z,29.69
2023-01-19T12:24:36.616Z,30.32
2023-01-19T12:25:54.694Z,30.19
2023-01-19T12:26:58.924Z,30.45
2023-01-19T12:28:00.865Z,30.68
2023-01-19T12:29:11.971Z,30.72
2023-01-19T12:30:26.934Z,30.15
2023-01-19T12:31:28.968Z,30.13
2023-01-19T12:32:35.898Z,30.95
2023-01-19T12:33:39.944Z,31.02
2023-01-19T12:34:44.508Z,31.04
2023-01-19T12:36:00.928Z,31.09
2023-01-19T12:37:04.705Z,31.58
2023-01-19T12:38:44.119Z,30.52
2023-01-19T12:39:49.125Z,29.67
2023-01-19T12:40:50.850Z,29.85
2023-01-19T12:42:15.912Z,30.02
2023-01-19T12:43:17.755Z,29.77
2023-01-19T12:44:29.049Z,30.10
2023-01-19T12:45:33.608Z,30.54
2023-01-19T12:46:36.426Z,30.82
2023-01-19T12:47:38.271Z,30.95
2023-01-19T12:48:40.658Z,30.85
2023-01-19T12:49:49.679Z,30.96
2023-01-19T12:50:51.628Z,31.04
2023-01-19T12:52:32.437Z,30.74
2023-01-19T12:53:34.179Z,31.15
2023-01-19T12:54:36.419Z,31.21
2023-01-19T12:55:39.051Z,30.66
2023-01-19T12:56:40.816Z,30.85
2023-01-19T12:57:56.599Z,31.35
2023-01-19T12:58:58.942Z,30.87
2023-01-19T13:00:28.786Z,30.59
2023-01-19T13:01:30.633Z,30.36
2023-01-19T13:02:44.984Z,30.31
2023-01-19T13:04:00.018Z,30.39
2023-01-19T13:05:23.473Z,30.55
2023-01-19T13:06:49.808Z,31.04
2023-01-19T13:08:03.530Z,31.35
2023-01-19T13:09:32.101Z,31.61
2023-01-19T13:11:15.212Z,31.58
2023-01-19T13:12:26.824Z,30.76
2023-01-19T13:13:32.612Z,31.01
2023-01-19T13:14:37.546Z,31.54
2023-01-19T13:15:39.485Z,31.69
2023-01-19T13:16:41.191Z,31.48
2023-01-19T13:17:51.366Z,32.07
2023-01-19T13:19:07.994Z,31.64
2023-01-19T13:20:33.372Z,31.82
2023-01-19T13:21:37.907Z,32.03
2023-01-19T13:24:22.927Z,31.53
2023-01-19T13:25:30.413Z,31.45
2023-01-19T13:26:37.059Z,31.63
2023-01-19T13:28:48.554Z,31.43
2023-01-19T13:29:51.291Z,31.63
2023-01-19T13:30:59.371Z,31.96
2023-01-19T13:32:15.905Z,31.68
2023-01-19T13:33:24.389Z,31.65
2023-01-19T13:34:27.581Z,31.88
2023-01-19T13:35:29.547Z,31.91
2023-01-19T13:36:35.510Z,31.41
2023-01-19T13:37:40.609Z,30.96
2023-01-19T13:38:43.208Z,30.97
2023-01-19T13:39:46.921Z,31.51
2023-01-19T13:40:49.346Z,31.27
2023-01-19T13:41:54.350Z,31.62
2023-01-19T13:42:56.995Z,31.59
2023-01-19T13:44:12.481Z,31.69
2023-01-19T13:45:36.718Z,30.85
2023-01-19T13:46:39.095Z,31.52
2023-01-19T13:47:47.916Z,31.73
2023-01-19T13:48:57.092Z,31.74
2023-01-19T13:50:01.173Z,31.43
2023-01-19T13:51:05.614Z,31.17
2023-01-19T13:52:15.144Z,31.06
2023-01-19T13:53:18.757Z,31.18
2023-01-19T13:54:20.384Z,31.42
2023-01-19T13:55:23.465Z,31.38
2023-01-19T13:56:29.826Z,31.72
2023-01-19T13:57:40.737Z,31.62
2023-01-19T13:58:42.817Z,31.12
2023-01-19T13:59:44.708Z,31.52
2023-01-19T14:00:46.713Z,31.41
2023-01-19T14:01:48.553Z,31.55
2023-01-19T14:02:56.466Z,31.60
2023-01-19T14:03:58.906Z,31.50
2023-01-19T14:05:24.634Z,31.19
2023-01-19T14:06:40.838Z,31.45
2023-01-19T14:07:42.641Z,31.71
2023-01-19T14:08:44.456Z,31.72
2023-01-19T14:09:46.171Z,31.54
2023-01-19T14:10:59.459Z,31.61
2023-01-19T14:12:16.137Z,32.04
2023-01-19T14:13:21.531Z,32.04
2023-01-19T14:14:27.896Z,31.81
2023-01-19T14:15:32.845Z,31.93
2023-01-19T14:16:34.553Z,31.97
2023-01-19T14:17:36.360Z,31.60
2023-01-19T14:18:38.210Z,32.13
2023-01-19T14:19:50.780Z,32.08
2023-01-19T14:21:09.400Z,32.12
2023-01-19T14:22:11.325Z,32.11
2023-01-19T14:23:42.919Z,32.22
2023-01-19T14:24:44.765Z,32.18
2023-01-19T14:25:46.441Z,32.43
2023-01-19T14:26:51.680Z,32.42
2023-01-19T14:28:28.120Z,32.00
2023-01-19T14:29:34.024Z,32.39
2023-01-19T14:30:35.771Z,32.34
2023-01-19T14:32:03.315Z,32.59